Terminal Aerodrome Forecast
Issued by NWS

Home | Current Version | Previous Version | Text Only | Print | Product List | Glossary On
Versions: 1 2 3 4 5 6 7 8 9 10 11 12 13 14 15 16 17 18 19 20 21 22 23 24 25 26
800
FTUS45 KSLC 261120
TAFHCR
TAF
KHCR 261120Z 2612/2712 VRB03KT P6SM SCT070 SCT100
     FM261500 18010KT P6SM VCSH SCT060 SCT120
     FM262100 22010KT P6SM VCTS SCT080CB BKN120
     FM270100 VRB04KT P6SM SCT080 SCT120=

USA.gov is the U.S. government's official web portal to all federal, state and local government web resources and services.